sensor_id;sensor_type;location;lat;lon;timestamp;pressure;altitude;pressure_sealevel;temperature;humidity
11345;BME280;5727;42.600;23.028;2023-05-24T00:02:25;93505.31;;;13.06;100.00
11345;BME280;5727;42.600;23.028;2023-05-24T00:04:53;93508.25;;;13.05;100.00
11345;BME280;5727;42.600;23.028;2023-05-24T00:07:20;93505.13;;;12.99;100.00
11345;BME280;5727;42.600;23.028;2023-05-24T00:09:47;93504.22;;;12.92;100.00
11345;BME280;5727;42.600;23.028;2023-05-24T00:12:13;93512.16;;;12.95;100.00
11345;BME280;5727;42.600;23.028;2023-05-24T00:14:41;93511.84;;;12.97;100.00
11345;BME280;5727;42.600;23.028;2023-05-24T00:17:07;93508.03;;;12.94;100.00
11345;BME280;5727;42.600;23.028;2023-05-24T00:19:34;93509.47;;;12.92;100.00
11345;BME280;5727;42.600;23.028;2023-05-24T00:22:04;93501.84;;;12.86;100.00
11345;BME280;5727;42.600;23.028;2023-05-24T00:24:30;93495.75;;;12.82;100.00
11345;BME280;5727;42.600;23.028;2023-05-24T00:26:57;93496.44;;;12.79;100.00
11345;BME280;5727;42.600;23.028;2023-05-24T00:29:24;93493.31;;;12.74;100.00
11345;BME280;5727;42.600;23.028;2023-05-24T00:31:51;93504.59;;;12.74;100.00
11345;BME280;5727;42.600;23.028;2023-05-24T00:34:17;93492.56;;;12.73;100.00
11345;BME280;5727;42.600;23.028;2023-05-24T00:36:44;93482.72;;;12.70;100.00
11345;BME280;5727;42.600;23.028;2023-05-24T00:39:12;93483.84;;;12.69;100.00
11345;BME280;5727;42.600;23.028;2023-05-24T00:41:39;93488.69;;;12.67;100.00
11345;BME280;5727;42.600;23.028;2023-05-24T00:44:06;93483.25;;;12.60;100.00
11345;BME280;5727;42.600;23.028;2023-05-24T00:46:35;93485.72;;;12.53;100.00
11345;BME280;5727;42.600;23.028;2023-05-24T00:49:02;93473.53;;;12.45;100.00
11345;BME280;5727;42.600;23.028;2023-05-24T00:51:29;93478.13;;;12.48;100.00
11345;BME280;5727;42.600;23.028;2023-05-24T00:53:56;93481.41;;;12.45;100.00
11345;BME280;5727;42.600;23.028;2023-05-24T00:56:25;93490.50;;;12.48;100.00
11345;BME280;5727;42.600;23.028;2023-05-24T00:58:52;93484.31;;;12.40;100.00
11345;BME280;5727;42.600;23.028;2023-05-24T01:01:20;93483.63;;;12.43;100.00
11345;BME280;5727;42.600;23.028;2023-05-24T01:03:50;93484.31;;;12.40;100.00
11345;BME280;5727;42.600;23.028;2023-05-24T01:06:16;93494.41;;;12.38;100.00
11345;BME280;5727;42.600;23.028;2023-05-24T01:09:01;93494.25;;;12.31;100.00
11345;BME280;5727;42.600;23.028;2023-05-24T01:11:44;93502.28;;;12.23;100.00
11345;BME280;5727;42.600;23.028;2023-05-24T01:14:21;93501.94;;;12.24;100.00
11345;BME280;5727;42.600;23.028;2023-05-24T01:16:55;93508.75;;;12.25;100.00
11345;BME280;5727;42.600;23.028;2023-05-24T01:19:53;93509.81;;;12.24;100.00
11345;BME280;5727;42.600;23.028;2023-05-24T01:22:37;93507.47;;;12.19;100.00
11345;BME280;5727;42.600;23.028;2023-05-24T01:25:11;93507.91;;;12.21;100.00
11345;BME280;5727;42.600;23.028;2023-05-24T01:27:44;93513.16;;;12.21;100.00
11345;BME280;5727;42.600;23.028;2023-05-24T01:30:13;93510.88;;;12.20;100.00
11345;BME280;5727;42.600;23.028;2023-05-24T01:32:40;93511.19;;;12.18;100.00
11345;BME280;5727;42.600;23.028;2023-05-24T01:35:08;93505.09;;;12.14;100.00
11345;BME280;5727;42.600;23.028;2023-05-24T01:37:34;93501.63;;;12.10;100.00
11345;BME280;5727;42.600;23.028;2023-05-24T01:40:02;93503.84;;;12.08;100.00
11345;BME280;5727;42.600;23.028;2023-05-24T01:42:36;93501.22;;;12.08;100.00
11345;BME280;5727;42.600;23.028;2023-05-24T01:45:15;93503.41;;;12.06;100.00
11345;BME280;5727;42.600;23.028;2023-05-24T01:47:57;93505.84;;;11.99;100.00
11345;BME280;5727;42.600;23.028;2023-05-24T01:50:31;93496.38;;;11.94;100.00
11345;BME280;5727;42.600;23.028;2023-05-24T01:53:02;93489.25;;;11.95;100.00
11345;BME280;5727;42.600;23.028;2023-05-24T01:55:31;93498.88;;;11.91;100.00
11345;BME280;5727;42.600;23.028;2023-05-24T01:58:01;93498.16;;;11.90;100.00
11345;BME280;5727;42.600;23.028;2023-05-24T02:00:30;93498.81;;;11.87;100.00
11345;BME280;5727;42.600;23.028;2023-05-24T02:02:58;93495.00;;;11.85;100.00
11345;BME280;5727;42.600;23.028;2023-05-24T02:05:27;93492.63;;;11.80;100.00
11345;BME280;5727;42.600;23.028;2023-05-24T02:07:54;93490.81;;;11.68;100.00
11345;BME280;5727;42.600;23.028;2023-05-24T02:10:20;93493.25;;;11.61;100.00
11345;BME280;5727;42.600;23.028;2023-05-24T02:12:47;93487.91;;;11.58;100.00
11345;BME280;5727;42.600;23.028;2023-05-24T02:15:14;93500.19;;;11.54;100.00
11345;BME280;5727;42.600;23.028;2023-05-24T02:17:42;93500.84;;;11.51;100.00
11345;BME280;5727;42.600;23.028;2023-05-24T02:20:11;93498.88;;;11.48;100.00
11345;BME280;5727;42.600;23.028;2023-05-24T02:22:38;93490.84;;;11.41;100.00
11345;BME280;5727;42.600;23.028;2023-05-24T02:25:05;93491.28;;;11.43;100.00
11345;BME280;5727;42.600;23.028;2023-05-24T02:27:32;93489.31;;;11.40;100.00
11345;BME280;5727;42.600;23.028;2023-05-24T02:29:59;93484.91;;;11.44;100.00
11345;BME280;5727;42.600;23.028;2023-05-24T02:32:25;93484.81;;;11.40;100.00
11345;BME280;5727;42.600;23.028;2023-05-24T02:34:54;93482.63;;;11.42;100.00
11345;BME280;5727;42.600;23.028;2023-05-24T02:37:20;93482.53;;;11.39;100.00
11345;BME280;5727;42.600;23.028;2023-05-24T02:39:47;93478.03;;;11.39;100.00
11345;BME280;5727;42.600;23.028;2023-05-24T02:42:14;93478.81;;;11.40;100.00
11345;BME280;5727;42.600;23.028;2023-05-24T02:44:40;93481.09;;;11.26;100.00
11345;BME280;5727;42.600;23.028;2023-05-24T02:47:07;93487.31;;;11.21;100.00
11345;BME280;5727;42.600;23.028;2023-05-24T02:49:34;93491.16;;;11.24;100.00
11345;BME280;5727;42.600;23.028;2023-05-24T02:52:03;93491.88;;;11.24;100.00
11345;BME280;5727;42.600;23.028;2023-05-24T02:54:29;93496.03;;;11.25;100.00
11345;BME280;5727;42.600;23.028;2023-05-24T02:56:56;93492.78;;;11.16;100.00
11345;BME280;5727;42.600;23.028;2023-05-24T02:59:23;93494.56;;;11.12;100.00
11345;BME280;5727;42.600;23.028;2023-05-24T03:01:50;93491.19;;;11.12;100.00
11345;BME280;5727;42.600;23.028;2023-05-24T03:04:16;93499.47;;;11.14;100.00
11345;BME280;5727;42.600;23.028;2023-05-24T03:06:43;93494.66;;;11.16;100.00
11345;BME280;5727;42.600;23.028;2023-05-24T03:09:12;93502.19;;;11.17;100.00
11345;BME280;5727;42.600;23.028;2023-05-24T03:11:41;93505.25;;;11.19;100.00
11345;BME280;5727;42.600;23.028;2023-05-24T03:14:07;93510.16;;;11.21;100.00
11345;BME280;5727;42.600;23.028;2023-05-24T03:16:35;93507.09;;;11.19;100.00
11345;BME280;5727;42.600;23.028;2023-05-24T03:19:02;93510.81;;;11.18;100.00
11345;BME280;5727;42.600;23.028;2023-05-24T03:21:29;93508.19;;;11.18;100.00
11345;BME280;5727;42.600;23.028;2023-05-24T03:23:56;93504.03;;;11.17;100.00
11345;BME280;5727;42.600;23.028;2023-05-24T03:26:24;93505.25;;;11.19;100.00
11345;BME280;5727;42.600;23.028;2023-05-24T03:28:51;93511.25;;;11.20;100.00
11345;BME280;5727;42.600;23.028;2023-05-24T03:31:18;93512.88;;;11.24;100.00
11345;BME280;5727;42.600;23.028;2023-05-24T03:33:48;93511.44;;;11.27;100.00
11345;BME280;5727;42.600;23.028;2023-05-24T03:36:15;93516.44;;;11.32;100.00
11345;BME280;5727;42.600;23.028;2023-05-24T03:38:42;93511.31;;;11.35;100.00
11345;BME280;5727;42.600;23.028;2023-05-24T03:41:09;93512.56;;;11.41;100.00
11345;BME280;5727;42.600;23.028;2023-05-24T03:43:37;93510.50;;;11.47;100.00
11345;BME280;5727;42.600;23.028;2023-05-24T03:46:03;93508.53;;;11.44;100.00
11345;BME280;5727;42.600;23.028;2023-05-24T03:48:30;93518.47;;;11.50;100.00
11345;BME280;5727;42.600;23.028;2023-05-24T03:50:57;93514.59;;;11.60;100.00
11345;BME280;5727;42.600;23.028;2023-05-24T03:53:24;93509.41;;;11.63;100.00
11345;BME280;5727;42.600;23.028;2023-05-24T03:55:51;93514.00;;;11.66;100.00
11345;BME280;5727;42.600;23.028;2023-05-24T03:58:17;93517.75;;;11.65;100.00
11345;BME280;5727;42.600;23.028;2023-05-24T04:00:45;93521.31;;;11.73;100.00
11345;BME280;5727;42.600;23.028;2023-05-24T04:03:12;93525.81;;;11.60;100.00
11345;BME280;5727;42.600;23.028;2023-05-24T04:05:39;93531.84;;;11.61;100.00
11345;BME280;5727;42.600;23.028;2023-05-24T04:08:05;93532.91;;;11.72;100.00
11345;BME280;5727;42.600;23.028;2023-05-24T04:10:32;93530.72;;;11.74;100.00
11345;BME280;5727;42.600;23.028;2023-05-24T04:12:59;93534.69;;;11.68;100.00
11345;BME280;5727;42.600;23.028;2023-05-24T04:15:26;93536.88;;;11.66;100.00
11345;BME280;5727;42.600;23.028;2023-05-24T04:17:54;93531.94;;;11.64;100.00
11345;BME280;5727;42.600;23.028;2023-05-24T04:20:21;93538.16;;;11.72;100.00
11345;BME280;5727;42.600;23.028;2023-05-24T04:22:49;93542.50;;;11.80;100.00
11345;BME280;5727;42.600;23.028;2023-05-24T04:25:16;93541.16;;;11.86;100.00
11345;BME280;5727;42.600;23.028;2023-05-24T04:27:43;93542.44;;;11.92;100.00
11345;BME280;5727;42.600;23.028;2023-05-24T04:30:13;93538.88;;;12.00;100.00
11345;BME280;5727;42.600;23.028;2023-05-24T04:32:40;93542.78;;;12.06;100.00
11345;BME280;5727;42.600;23.028;2023-05-24T04:35:10;93534.38;;;12.16;100.00
11345;BME280;5727;42.600;23.028;2023-05-24T04:37:36;93535.66;;;12.22;100.00
11345;BME280;5727;42.600;23.028;2023-05-24T04:40:05;93533.47;;;12.24;100.00
11345;BME280;5727;42.600;23.028;2023-05-24T04:42:32;93534.75;;;12.30;100.00
11345;BME280;5727;42.600;23.028;2023-05-24T04:44:59;93541.13;;;12.29;100.00
11345;BME280;5727;42.600;23.028;2023-05-24T04:47:26;93539.22;;;12.45;100.00
11345;BME280;5727;42.600;23.028;2023-05-24T04:49:52;93542.28;;;12.47;100.00
11345;BME280;5727;42.600;23.028;2023-05-24T04:52:20;93546.00;;;12.62;100.00
11345;BME280;5727;42.600;23.028;2023-05-24T04:54:48;93541.25;;;12.67;100.00
11345;BME280;5727;42.600;23.028;2023-05-24T04:57:15;93546.06;;;12.81;100.00
11345;BME280;5727;42.600;23.028;2023-05-24T04:59:43;93545.44;;;12.87;100.00
11345;BME280;5727;42.600;23.028;2023-05-24T05:02:09;93544.50;;;12.96;100.00
11345;BME280;5727;42.600;23.028;2023-05-24T05:04:36;93542.19;;;13.10;100.00
11345;BME280;5727;42.600;23.028;2023-05-24T05:07:03;93548.06;;;13.22;100.00
11345;BME280;5727;42.600;23.028;2023-05-24T05:09:31;93545.94;;;13.28;100.00
11345;BME280;5727;42.600;23.028;2023-05-24T05:11:58;93551.63;;;13.30;100.00
11345;BME280;5727;42.600;23.028;2023-05-24T05:14:25;93550.66;;;13.38;100.00
11345;BME280;5727;42.600;23.028;2023-05-24T05:16:52;93551.19;;;13.47;100.00
11345;BME280;5727;42.600;23.028;2023-05-24T05:19:18;93550.31;;;13.58;100.00
11345;BME280;5727;42.600;23.028;2023-05-24T05:21:45;93551.19;;;13.66;100.00
11345;BME280;5727;42.600;23.028;2023-05-24T05:24:14;93550.28;;;13.77;100.00
11345;BME280;5727;42.600;23.028;2023-05-24T05:26:42;93545.16;;;13.85;100.00
11345;BME280;5727;42.600;23.028;2023-05-24T05:29:09;93544.56;;;13.95;100.00
11345;BME280;5727;42.600;23.028;2023-05-24T05:31:36;93552.56;;;13.98;100.00
11345;BME280;5727;42.600;23.028;2023-05-24T05:34:03;93554.97;;;14.07;100.00
11345;BME280;5727;42.600;23.028;2023-05-24T05:36:34;93557.72;;;14.14;100.00
11345;BME280;5727;42.600;23.028;2023-05-24T05:39:05;93555.97;;;14.21;100.00
11345;BME280;5727;42.600;23.028;2023-05-24T05:41:36;93552.84;;;14.35;100.00
11345;BME280;5727;42.600;23.028;2023-05-24T05:44:04;93555.63;;;14.45;100.00
11345;BME280;5727;42.600;23.028;2023-05-24T05:46:31;93556.78;;;14.44;100.00
11345;BME280;5727;42.600;23.028;2023-05-24T05:48:58;93552.84;;;14.35;100.00
11345;BME280;5727;42.600;23.028;2023-05-24T05:51:24;93558.31;;;14.26;100.00
11345;BME280;5727;42.600;23.028;2023-05-24T05:53:51;93552.78;;;14.31;100.00
11345;BME280;5727;42.600;23.028;2023-05-24T05:56:18;93560.44;;;14.40;100.00
11345;BME280;5727;42.600;23.028;2023-05-24T05:58:45;93553.81;;;14.49;100.00
11345;BME280;5727;42.600;23.028;2023-05-24T06:01:14;93557.69;;;14.55;100.00
11345;BME280;5727;42.600;23.028;2023-05-24T06:03:41;93551.84;;;14.65;100.00
11345;BME280;5727;42.600;23.028;2023-05-24T06:06:07;93552.75;;;14.77;100.00
11345;BME280;5727;42.600;23.028;2023-05-24T06:08:34;93557.81;;;14.89;100.00
11345;BME280;5727;42.600;23.028;2023-05-24T06:11:01;93558.97;;;14.91;100.00
11345;BME280;5727;42.600;23.028;2023-05-24T06:13:28;93567.28;;;14.93;100.00
11345;BME280;5727;42.600;23.028;2023-05-24T06:15:55;93560.06;;;14.87;100.00
11345;BME280;5727;42.600;23.028;2023-05-24T06:18:24;93565.09;;;14.99;100.00
11345;BME280;5727;42.600;23.028;2023-05-24T06:20:52;93558.16;;;15.13;100.00
11345;BME280;5727;42.600;23.028;2023-05-24T06:23:19;93565.22;;;15.06;100.00
11345;BME280;5727;42.600;23.028;2023-05-24T06:25:46;93561.25;;;15.19;100.00
11345;BME280;5727;42.600;23.028;2023-05-24T06:28:12;93561.09;;;15.34;100.00
11345;BME280;5727;42.600;23.028;2023-05-24T06:30:39;93559.38;;;15.45;100.00
11345;BME280;5727;42.600;23.028;2023-05-24T06:33:06;93562.84;;;15.53;100.00
11345;BME280;5727;42.600;23.028;2023-05-24T06:35:34;93566.38;;;15.64;100.00
11345;BME280;5727;42.600;23.028;2023-05-24T06:38:01;93563.50;;;15.76;100.00
11345;BME280;5727;42.600;23.028;2023-05-24T06:40:28;93570.34;;;15.81;100.00
11345;BME280;5727;42.600;23.028;2023-05-24T06:42:55;93565.94;;;15.92;100.00
11345;BME280;5727;42.600;23.028;2023-05-24T06:45:23;93553.22;;;16.04;100.00
11345;BME280;5727;42.600;23.028;2023-05-24T06:47:49;93561.66;;;16.17;100.00
11345;BME280;5727;42.600;23.028;2023-05-24T06:50:16;93557.91;;;16.21;100.00
11345;BME280;5727;42.600;23.028;2023-05-24T06:52:44;93559.09;;;16.24;100.00
11345;BME280;5727;42.600;23.028;2023-05-24T06:55:11;93555.00;;;16.33;100.00
11345;BME280;5727;42.600;23.028;2023-05-24T06:57:38;93556.25;;;16.46;100.00
11345;BME280;5727;42.600;23.028;2023-05-24T07:00:05;93563.16;;;16.55;100.00
11345;BME280;5727;42.600;23.028;2023-05-24T07:02:36;93563.66;;;16.67;100.00
11345;BME280;5727;42.600;23.028;2023-05-24T07:05:04;93567.13;;;16.75;100.00
11345;BME280;5727;42.600;23.028;2023-05-24T07:07:32;93566.75;;;16.80;100.00
11345;BME280;5727;42.600;23.028;2023-05-24T07:10:00;93556.28;;;16.90;100.00
11345;BME280;5727;42.600;23.028;2023-05-24T07:12:27;93555.16;;;16.98;100.00
11345;BME280;5727;42.600;23.028;2023-05-24T07:14:54;93561.31;;;17.13;100.00
11345;BME280;5727;42.600;23.028;2023-05-24T07:17:21;93559.09;;;17.18;100.00
11345;BME280;5727;42.600;23.028;2023-05-24T07:19:47;93559.50;;;17.27;100.00
11345;BME280;5727;42.600;23.028;2023-05-24T07:22:14;93557.66;;;17.38;100.00
11345;BME280;5727;42.600;23.028;2023-05-24T07:24:41;93552.03;;;17.47;100.00
11345;BME280;5727;42.600;23.028;2023-05-24T07:27:09;93564.59;;;17.54;100.00
11345;BME280;5727;42.600;23.028;2023-05-24T07:29:36;93554.06;;;17.68;100.00
11345;BME280;5727;42.600;23.028;2023-05-24T07:32:03;93562.81;;;17.79;100.00
11345;BME280;5727;42.600;23.028;2023-05-24T07:34:29;93556.44;;;17.90;100.00
11345;BME280;5727;42.600;23.028;2023-05-24T07:36:56;93564.38;;;17.97;100.00
11345;BME280;5727;42.600;23.028;2023-05-24T07:39:25;93552.28;;;18.03;100.00
11345;BME280;5727;42.600;23.028;2023-05-24T07:41:52;93561.41;;;18.16;100.00
11345;BME280;5727;42.600;23.028;2023-05-24T07:44:20;93557.25;;;18.26;100.00
11345;BME280;5727;42.600;23.028;2023-05-24T07:46:48;93561.06;;;18.32;100.00
11345;BME280;5727;42.600;23.028;2023-05-24T07:49:15;93555.38;;;18.41;100.00
11345;BME280;5727;42.600;23.028;2023-05-24T07:51:42;93554.66;;;18.44;100.00
11345;BME280;5727;42.600;23.028;2023-05-24T07:54:08;93556.56;;;18.57;100.00
11345;BME280;5727;42.600;23.028;2023-05-24T07:56:35;93551.63;;;18.70;100.00
11345;BME280;5727;42.600;23.028;2023-05-24T07:59:02;93558.09;;;18.69;100.00
11345;BME280;5727;42.600;23.028;2023-05-24T08:01:31;93551.66;;;18.77;100.00
11345;BME280;5727;42.600;23.028;2023-05-24T08:03:59;93558.47;;;18.92;100.00
11345;BME280;5727;42.600;23.028;2023-05-24T08:06:25;93552.75;;;19.04;100.00
11345;BME280;5727;42.600;23.028;2023-05-24T08:08:53;93551.22;;;19.10;100.00
11345;BME280;5727;42.600;23.028;2023-05-24T08:11:19;93548.94;;;19.12;100.00
11345;BME280;5727;42.600;23.028;2023-05-24T08:13:46;93554.97;;;19.23;95.91
11345;BME280;5727;42.600;23.028;2023-05-24T08:16:13;93550.44;;;19.31;91.25
11345;BME280;5727;42.600;23.028;2023-05-24T08:18:41;93549.28;;;19.39;92.19
11345;BME280;5727;42.600;23.028;2023-05-24T08:21:07;93551.16;;;19.52;92.38
11345;BME280;5727;42.600;23.028;2023-05-24T08:23:34;93546.53;;;19.70;91.28
11345;BME280;5727;42.600;23.028;2023-05-24T08:26:01;93549.50;;;19.86;83.14
11345;BME280;5727;42.600;23.028;2023-05-24T08:28:28;93558.97;;;19.94;84.03
11345;BME280;5727;42.600;23.028;2023-05-24T08:30:55;93556.97;;;20.13;75.95
11345;BME280;5727;42.600;23.028;2023-05-24T08:33:22;93539.09;;;20.17;76.68
11345;BME280;5727;42.600;23.028;2023-05-24T08:35:51;93553.06;;;20.35;77.26
11345;BME280;5727;42.600;23.028;2023-05-24T08:38:17;93538.88;;;20.52;71.54
11345;BME280;5727;42.600;23.028;2023-05-24T08:40:44;93538.44;;;20.60;64.30
11345;BME280;5727;42.600;23.028;2023-05-24T08:43:11;93534.91;;;20.74;65.02
11345;BME280;5727;42.600;23.028;2023-05-24T08:45:38;93536.81;;;20.73;60.52
11345;BME280;5727;42.600;23.028;2023-05-24T08:48:05;93524.19;;;20.81;58.18
11345;BME280;5727;42.600;23.028;2023-05-24T08:50:32;93532.91;;;20.85;59.10
11345;BME280;5727;42.600;23.028;2023-05-24T08:53:01;93527.47;;;20.99;61.42
11345;BME280;5727;42.600;23.028;2023-05-24T08:55:29;93541.91;;;21.05;59.41
11345;BME280;5727;42.600;23.028;2023-05-24T08:57:56;93531.22;;;21.09;55.19
11345;BME280;5727;42.600;23.028;2023-05-24T09:00:24;93532.63;;;21.20;60.08
11345;BME280;5727;42.600;23.028;2023-05-24T09:02:51;93528.75;;;21.28;58.02
11345;BME280;5727;42.600;23.028;2023-05-24T09:05:18;93535.22;;;21.27;54.33
11345;BME280;5727;42.600;23.028;2023-05-24T09:07:48;93530.13;;;21.43;60.32
11345;BME280;5727;42.600;23.028;2023-05-24T09:10:18;93529.97;;;21.54;57.83
11345;BME280;5727;42.600;23.028;2023-05-24T09:12:51;93536.72;;;21.65;51.24
11345;BME280;5727;42.600;23.028;2023-05-24T09:15:20;93529.16;;;21.60;53.55
11345;BME280;5727;42.600;23.028;2023-05-24T09:17:47;93517.63;;;21.67;55.27
11345;BME280;5727;42.600;23.028;2023-05-24T09:20:13;93518.63;;;21.83;51.75
11345;BME280;5727;42.600;23.028;2023-05-24T09:22:41;93529.47;;;21.66;49.62
11345;BME280;5727;42.600;23.028;2023-05-24T09:25:11;93516.84;;;21.70;50.28
11345;BME280;5727;42.600;23.028;2023-05-24T09:27:39;93527.56;;;21.66;48.31
11345;BME280;5727;42.600;23.028;2023-05-24T09:30:08;93528.34;;;21.63;46.62
11345;BME280;5727;42.600;23.028;2023-05-24T09:32:34;93529.00;;;21.71;47.84
11345;BME280;5727;42.600;23.028;2023-05-24T09:35:01;93525.88;;;21.79;47.03
11345;BME280;5727;42.600;23.028;2023-05-24T09:37:28;93525.50;;;21.81;47.04
11345;BME280;5727;42.600;23.028;2023-05-24T09:39:55;93521.94;;;21.91;50.75
11345;BME280;5727;42.600;23.028;2023-05-24T09:42:23;93520.19;;;22.08;46.07
11345;BME280;5727;42.600;23.028;2023-05-24T09:44:59;93519.34;;;22.14;46.36
11345;BME280;5727;42.600;23.028;2023-05-24T09:47:30;93520.44;;;22.20;46.34
11345;BME280;5727;42.600;23.028;2023-05-24T09:49:58;93516.19;;;22.23;44.19
11345;BME280;5727;42.600;23.028;2023-05-24T09:52:24;93522.22;;;22.27;44.67
11345;BME280;5727;42.600;23.028;2023-05-24T09:54:51;93509.19;;;22.32;44.95
11345;BME280;5727;42.600;23.028;2023-05-24T09:57:18;93520.97;;;22.35;43.37
11345;BME280;5727;42.600;23.028;2023-05-24T09:59:47;93509.44;;;22.41;44.06
11345;BME280;5727;42.600;23.028;2023-05-24T10:02:15;93499.84;;;22.44;42.22
11345;BME280;5727;42.600;23.028;2023-05-24T10:04:44;93513.78;;;22.32;42.21
11345;BME280;5727;42.600;23.028;2023-05-24T10:07:11;93517.09;;;22.13;43.73
11345;BME280;5727;42.600;23.028;2023-05-24T10:09:39;93513.22;;;22.17;43.67
11345;BME280;5727;42.600;23.028;2023-05-24T10:12:07;93505.72;;;22.35;43.89
11345;BME280;5727;42.600;23.028;2023-05-24T10:14:35;93507.72;;;22.54;43.07
11345;BME280;5727;42.600;23.028;2023-05-24T10:17:02;93505.00;;;22.58;44.93
11345;BME280;5727;42.600;23.028;2023-05-24T10:19:31;93515.47;;;22.72;41.81
11345;BME280;5727;42.600;23.028;2023-05-24T10:21:59;93510.84;;;22.76;45.16
11345;BME280;5727;42.600;23.028;2023-05-24T10:24:32;93502.56;;;22.90;41.77
11345;BME280;5727;42.600;23.028;2023-05-24T10:27:02;93502.94;;;22.92;41.16
11345;BME280;5727;42.600;23.028;2023-05-24T10:29:40;93512.06;;;22.95;43.44
11345;BME280;5727;42.600;23.028;2023-05-24T10:32:10;93505.16;;;22.97;40.27
11345;BME280;5727;42.600;23.028;2023-05-24T10:34:40;93490.69;;;22.95;41.17
11345;BME280;5727;42.600;23.028;2023-05-24T10:37:08;93496.03;;;22.95;42.01
11345;BME280;5727;42.600;23.028;2023-05-24T10:39:35;93486.19;;;22.88;41.13
11345;BME280;5727;42.600;23.028;2023-05-24T10:42:03;93491.38;;;22.76;41.61
11345;BME280;5727;42.600;23.028;2023-05-24T10:44:30;93489.53;;;22.73;41.39
11345;BME280;5727;42.600;23.028;2023-05-24T10:47:08;93485.13;;;22.62;42.35
11345;BME280;5727;42.600;23.028;2023-05-24T10:49:35;93481.00;;;22.81;42.07
11345;BME280;5727;42.600;23.028;2023-05-24T10:52:07;93480.81;;;22.92;41.62
11345;BME280;5727;42.600;23.028;2023-05-24T10:54:34;93478.94;;;22.89;40.61
11345;BME280;5727;42.600;23.028;2023-05-24T10:57:03;93475.94;;;22.87;40.98
11345;BME280;5727;42.600;23.028;2023-05-24T10:59:32;93475.00;;;22.73;40.03
11345;BME280;5727;42.600;23.028;2023-05-24T11:02:02;93470.78;;;22.76;41.25
11345;BME280;5727;42.600;23.028;2023-05-24T11:04:31;93470.06;;;22.95;40.11
11345;BME280;5727;42.600;23.028;2023-05-24T11:07:01;93451.16;;;23.06;40.75
11345;BME280;5727;42.600;23.028;2023-05-24T11:09:30;93464.19;;;23.23;37.91
11345;BME280;5727;42.600;23.028;2023-05-24T11:12:00;93463.44;;;23.23;36.80
11345;BME280;5727;42.600;23.028;2023-05-24T11:14:29;93463.63;;;23.35;36.55
11345;BME280;5727;42.600;23.028;2023-05-24T11:16:57;93452.09;;;23.58;36.94
11345;BME280;5727;42.600;23.028;2023-05-24T11:19:30;93459.84;;;23.72;34.81
11345;BME280;5727;42.600;23.028;2023-05-24T11:21:57;93470.13;;;23.74;33.30
11345;BME280;5727;42.600;23.028;2023-05-24T11:24:25;93454.84;;;23.35;33.06
11345;BME280;5727;42.600;23.028;2023-05-24T11:26:54;93451.69;;;23.40;33.36
11345;BME280;5727;42.600;23.028;2023-05-24T11:29:22;93455.69;;;23.87;33.00
11345;BME280;5727;42.600;23.028;2023-05-24T11:31:50;93456.94;;;24.34;33.03
11345;BME280;5727;42.600;23.028;2023-05-24T11:34:17;93447.41;;;25.55;32.63
11345;BME280;5727;42.600;23.028;2023-05-24T11:36:44;93447.69;;;27.85;29.72
11345;BME280;5727;42.600;23.028;2023-05-24T11:39:11;93445.88;;;27.05;30.02
11345;BME280;5727;42.600;23.028;2023-05-24T11:41:39;93446.44;;;27.56;29.63
11345;BME280;5727;42.600;23.028;2023-05-24T11:44:08;93437.19;;;29.07;26.57
11345;BME280;5727;42.600;23.028;2023-05-24T11:46:35;93433.22;;;30.40;26.20
11345;BME280;5727;42.600;23.028;2023-05-24T11:49:04;93439.41;;;30.22;24.51
11345;BME280;5727;42.600;23.028;2023-05-24T11:51:34;93437.16;;;28.79;25.69
11345;BME280;5727;42.600;23.028;2023-05-24T11:54:01;93425.88;;;28.23;26.80
11345;BME280;5727;42.600;23.028;2023-05-24T11:56:29;93427.00;;;28.44;26.69
11345;BME280;5727;42.600;23.028;2023-05-24T11:59:05;93431.44;;;29.86;25.55
11345;BME280;5727;42.600;23.028;2023-05-24T12:01:35;93427.31;;;30.83;24.09
11345;BME280;5727;42.600;23.028;2023-05-24T12:04:04;93434.59;;;30.92;23.44
11345;BME280;5727;42.600;23.028;2023-05-24T12:06:35;93429.72;;;31.43;22.83
11345;BME280;5727;42.600;23.028;2023-05-24T12:09:02;93433.69;;;31.71;22.80
11345;BME280;5727;42.600;23.028;2023-05-24T12:11:33;93428.63;;;33.06;21.89
11345;BME280;5727;42.600;23.028;2023-05-24T12:14:00;93419.34;;;32.58;22.22
11345;BME280;5727;42.600;23.028;2023-05-24T12:16:26;93419.75;;;33.06;22.06
11345;BME280;5727;42.600;23.028;2023-05-24T12:18:57;93414.00;;;32.98;21.30
11345;BME280;5727;42.600;23.028;2023-05-24T12:21:24;93411.34;;;33.04;20.76
11345;BME280;5727;42.600;23.028;2023-05-24T12:23:55;93401.22;;;32.50;22.11
11345;BME280;5727;42.600;23.028;2023-05-24T12:26:22;93413.78;;;33.68;20.98
11345;BME280;5727;42.600;23.028;2023-05-24T12:28:52;93404.00;;;34.07;20.37
11345;BME280;5727;42.600;23.028;2023-05-24T12:31:19;93405.28;;;34.11;20.53
11345;BME280;5727;42.600;23.028;2023-05-24T12:33:46;93404.00;;;35.39;19.97
11345;BME280;5727;42.600;23.028;2023-05-24T12:36:16;93394.91;;;34.47;19.75
11345;BME280;5727;42.600;23.028;2023-05-24T12:38:42;93401.16;;;34.58;19.30
11345;BME280;5727;42.600;23.028;2023-05-24T12:41:10;93394.59;;;34.81;20.13
11345;BME280;5727;42.600;23.028;2023-05-24T12:43:38;93392.72;;;35.68;19.87
11345;BME280;5727;42.600;23.028;2023-05-24T12:46:05;93385.31;;;34.99;19.46
11345;BME280;5727;42.600;23.028;2023-05-24T12:48:32;93396.94;;;34.21;20.80
11345;BME280;5727;42.600;23.028;2023-05-24T12:50:59;93395.88;;;34.86;20.77
11345;BME280;5727;42.600;23.028;2023-05-24T12:53:28;93400.03;;;33.77;20.88
11345;BME280;5727;42.600;23.028;2023-05-24T12:55:55;93392.47;;;34.18;20.24
11345;BME280;5727;42.600;23.028;2023-05-24T12:58:24;93388.91;;;35.38;18.99